createdAt,value
2019-05-30T00:01:00.001Z,98675.77
2019-05-30T00:03:37.337Z,98673.05
2019-05-30T00:06:09.447Z,98673.34
2019-05-30T00:08:41.177Z,98675.27
2019-05-30T00:11:13.873Z,98679.31
2019-05-30T00:13:47.152Z,98680.41
2019-05-30T00:16:19.763Z,98669.05
2019-05-30T00:18:54.671Z,98680.25
2019-05-30T00:21:28.037Z,98686.06
2019-05-30T00:24:00.423Z,98673.23
2019-05-30T00:26:33.414Z,98680.59
2019-05-30T00:29:11.792Z,98679.23
2019-05-30T00:31:44.008Z,98683.09
2019-05-30T00:34:18.900Z,98677.00
2019-05-30T00:36:50.980Z,98682.67
2019-05-30T00:39:22.722Z,98684.28
2019-05-30T00:41:57.776Z,98677.91
2019-05-30T00:44:30.297Z,98681.65
2019-05-30T00:47:04.490Z,98677.84
2019-05-30T00:49:39.267Z,98681.13
2019-05-30T00:52:11.046Z,98678.97
2019-05-30T00:54:44.574Z,98683.69
2019-05-30T00:57:19.708Z,98685.20
2019-05-30T00:59:52.567Z,98686.67
2019-05-30T01:02:27.675Z,98681.73
2019-05-30T01:05:00.928Z,98680.17
2019-05-30T01:07:35.616Z,98674.89
2019-05-30T01:10:10.093Z,98672.67
2019-05-30T01:12:42.732Z,98677.50
2019-05-30T01:15:16.336Z,98677.88
2019-05-30T01:17:49.811Z,98672.14
2019-05-30T01:20:22.651Z,98675.84
2019-05-30T01:22:55.585Z,98665.77
2019-05-30T01:25:27.701Z,98672.52
2019-05-30T01:27:59.817Z,98668.48
2019-05-30T01:30:32.646Z,98674.44
2019-05-30T01:33:08.883Z,98663.23
2019-05-30T01:35:40.387Z,98674.55
2019-05-30T01:38:12.176Z,98681.33
2019-05-30T01:40:45.718Z,98672.17
2019-05-30T01:43:19.279Z,98673.78
2019-05-30T01:45:51.110Z,98675.50
2019-05-30T01:48:25.285Z,98677.22
2019-05-30T01:50:58.323Z,98673.67
2019-05-30T01:53:32.738Z,98674.27
2019-05-30T01:56:08.925Z,98670.73
2019-05-30T01:58:43.619Z,98676.73
2019-05-30T02:01:24.396Z,98680.92
2019-05-30T02:03:52.217Z,98670.16
2019-05-30T02:06:25.710Z,98673.17
2019-05-30T02:08:59.158Z,98672.77
2019-05-30T02:11:30.824Z,98681.66
2019-05-30T02:14:03.659Z,98685.53
2019-05-30T02:16:35.967Z,98691.18
2019-05-30T02:19:08.039Z,98686.85
2019-05-30T02:21:40.023Z,98688.03
2019-05-30T02:24:12.294Z,98683.56
2019-05-30T02:26:47.683Z,98688.46
2019-05-30T02:29:20.222Z,98698.84
2019-05-30T02:31:54.933Z,98698.01
2019-05-30T02:34:27.132Z,98688.20
2019-05-30T02:37:01.169Z,98698.53
2019-05-30T02:39:35.745Z,98699.19
2019-05-30T02:42:11.720Z,98687.81
2019-05-30T02:44:45.816Z,98698.74
2019-05-30T02:47:22.565Z,98703.32
2019-05-30T02:49:53.668Z,98697.55
2019-05-30T02:52:25.895Z,98698.64
2019-05-30T02:55:01.851Z,98694.62
2019-05-30T02:57:34.230Z,98709.38
2019-05-30T03:00:16.263Z,98699.33
2019-05-30T03:02:46.438Z,98704.95
2019-05-30T03:05:19.017Z,98708.02
2019-05-30T03:07:51.289Z,98713.22
2019-05-30T03:10:25.068Z,98709.05
2019-05-30T03:12:57.505Z,98711.75
2019-05-30T03:15:31.975Z,98713.95
2019-05-30T03:18:08.023Z,98722.18
2019-05-30T03:20:40.197Z,98720.89
2019-05-30T03:23:14.631Z,98710.25
2019-05-30T03:25:47.462Z,98715.20
2019-05-30T03:28:24.231Z,98706.55
2019-05-30T03:30:58.504Z,98717.52
2019-05-30T03:33:40.453Z,98714.02
2019-05-30T03:36:15.739Z,98720.86
2019-05-30T03:38:44.974Z,98703.33
2019-05-30T03:41:18.041Z,98734.77
2019-05-30T03:43:50.419Z,98718.75
2019-05-30T03:46:27.870Z,98715.44
2019-05-30T03:49:04.338Z,98721.73
2019-05-30T03:51:40.708Z,98714.63
2019-05-30T03:54:15.809Z,98722.92
2019-05-30T03:56:53.955Z,98738.73
2019-05-30T03:59:32.329Z,98733.67
2019-05-30T04:02:55.130Z,98725.06
2019-05-30T04:05:14.209Z,98738.57
2019-05-30T04:07:50.850Z,98739.50
2019-05-30T04:10:32.382Z,98726.06
2019-05-30T04:13:42.829Z,98742.34
2019-05-30T04:16:16.876Z,98751.41
2019-05-30T04:18:49.557Z,98759.55
2019-05-30T04:21:23.730Z,98751.98
2019-05-30T04:24:00.720Z,98754.54
2019-05-30T04:26:34.063Z,98755.95
2019-05-30T04:29:09.790Z,98743.69
2019-05-30T04:31:43.760Z,98763.86
2019-05-30T04:34:17.709Z,98764.80
2019-05-30T04:36:54.047Z,98761.06
2019-05-30T04:39:31.131Z,98753.41
2019-05-30T04:42:04.633Z,98767.73
2019-05-30T04:44:39.701Z,98761.31
2019-05-30T04:47:12.704Z,98766.27
2019-05-30T04:49:45.750Z,98752.30
2019-05-30T04:52:24.474Z,98782.84
2019-05-30T04:54:54.068Z,98781.17
2019-05-30T04:57:27.235Z,98768.98
2019-05-30T05:00:03.083Z,98780.98
2019-05-30T05:02:39.017Z,98778.41
2019-05-30T05:05:11.373Z,98773.82
2019-05-30T05:07:43.338Z,98750.78
2019-05-30T05:10:16.019Z,98768.20
2019-05-30T05:12:48.718Z,98783.47
2019-05-30T05:15:22.792Z,98800.78
2019-05-30T05:17:56.701Z,98795.56
2019-05-30T05:20:28.899Z,98790.31
2019-05-30T05:23:02.680Z,98796.98
2019-05-30T05:25:36.438Z,98804.44
2019-05-30T05:28:09.560Z,98806.39
2019-05-30T05:30:42.124Z,98811.87
2019-05-30T05:33:18.506Z,98806.27
2019-05-30T05:35:52.008Z,98807.16
2019-05-30T05:38:25.191Z,98814.14
2019-05-30T05:40:59.024Z,98815.36
2019-05-30T05:43:32.257Z,98832.70
2019-05-30T05:46:05.748Z,98833.27
2019-05-30T05:48:39.541Z,98825.95
2019-05-30T05:51:16.581Z,98823.19
2019-05-30T05:53:48.894Z,98824.77
2019-05-30T05:56:21.411Z,98820.02
2019-05-30T05:58:54.148Z,98827.48
2019-05-30T06:01:29.940Z,98838.81
2019-05-30T06:04:12.584Z,98833.21
2019-05-30T06:06:38.038Z,98835.58
2019-05-30T06:09:11.446Z,98839.50
2019-05-30T06:11:44.702Z,98840.33
2019-05-30T06:14:19.842Z,98846.39
2019-05-30T06:16:55.088Z,98852.48
2019-05-30T06:19:27.348Z,98846.70
2019-05-30T06:22:01.669Z,98847.28
2019-05-30T06:24:34.163Z,98843.27
2019-05-30T06:27:08.831Z,98842.49
2019-05-30T06:29:43.668Z,98838.56
2019-05-30T06:32:18.583Z,98851.52
2019-05-30T06:34:51.634Z,98850.58
2019-05-30T06:37:23.662Z,98845.88
2019-05-30T06:39:59.103Z,98848.17
2019-05-30T06:42:33.187Z,98859.02
2019-05-30T06:45:09.996Z,98854.12
2019-05-30T06:47:43.016Z,98847.59
2019-05-30T06:50:17.846Z,98864.20
2019-05-30T06:52:50.041Z,98857.56
2019-05-30T06:55:25.134Z,98860.66
2019-05-30T06:58:00.339Z,98865.45
2019-05-30T07:00:34.200Z,98868.93
2019-05-30T07:03:09.361Z,98866.64
2019-05-30T07:05:42.641Z,98861.55
2019-05-30T07:08:15.602Z,98875.20
2019-05-30T07:10:48.968Z,98871.86
2019-05-30T07:13:23.242Z,98878.55
2019-05-30T07:15:54.895Z,98886.09
2019-05-30T07:18:33.171Z,98888.09
2019-05-30T07:21:03.738Z,98885.98
2019-05-30T07:23:39.653Z,98883.11
2019-05-30T07:26:10.656Z,98877.44
2019-05-30T07:28:43.352Z,98877.44
2019-05-30T07:31:14.899Z,98883.55
2019-05-30T07:33:47.011Z,98889.77
2019-05-30T07:36:19.010Z,98885.08
2019-05-30T07:38:51.232Z,98892.52
2019-05-30T07:41:24.641Z,98890.69
2019-05-30T07:43:57.029Z,98883.39
2019-05-30T07:46:31.118Z,98884.74
2019-05-30T07:49:03.643Z,98895.66
2019-05-30T07:51:36.948Z,98895.72
2019-05-30T07:54:12.695Z,98903.61
2019-05-30T07:56:46.835Z,98895.36
2019-05-30T07:59:20.183Z,98898.27
2019-05-30T08:01:52.954Z,98909.50
2019-05-30T08:04:27.436Z,98912.28
2019-05-30T08:07:01.527Z,98906.27
2019-05-30T08:09:33.662Z,98918.73
2019-05-30T08:12:05.292Z,98907.77
2019-05-30T08:14:39.928Z,98915.41
2019-05-30T08:17:13.527Z,98918.48
2019-05-30T08:19:46.211Z,98917.31
2019-05-30T08:22:21.544Z,98921.39
2019-05-30T08:24:54.270Z,98926.82
2019-05-30T08:27:25.802Z,98926.93
2019-05-30T08:29:58.293Z,98921.86
2019-05-30T08:32:32.432Z,98927.98
2019-05-30T08:35:05.297Z,98933.05
2019-05-30T08:37:39.354Z,98935.60
2019-05-30T08:40:13.337Z,98943.27
2019-05-30T08:42:47.060Z,98943.91
2019-05-30T08:45:22.954Z,98950.33
2019-05-30T08:47:56.271Z,98953.50
2019-05-30T08:50:27.870Z,98939.38
2019-05-30T08:53:00.089Z,98944.68
2019-05-30T08:55:34.382Z,98946.05
2019-05-30T08:58:10.518Z,98948.65
2019-05-30T09:00:44.993Z,98947.64
2019-05-30T09:03:19.282Z,98949.76
2019-05-30T09:06:02.683Z,98950.27
2019-05-30T09:08:26.122Z,98946.30
2019-05-30T09:10:59.274Z,98949.34
2019-05-30T09:13:31.670Z,98957.42
2019-05-30T09:16:03.903Z,98956.85
2019-05-30T09:18:39.971Z,98960.14
2019-05-30T09:21:15.156Z,98965.52
2019-05-30T09:23:48.236Z,98955.49
2019-05-30T09:26:21.579Z,98963.92
2019-05-30T09:28:53.918Z,98956.17
2019-05-30T09:31:25.982Z,98967.65
2019-05-30T09:34:00.756Z,98957.36
2019-05-30T09:36:35.160Z,98962.32
2019-05-30T09:39:08.379Z,98959.41
2019-05-30T09:41:42.054Z,98963.47
2019-05-30T09:44:14.816Z,98968.84
2019-05-30T09:46:48.976Z,98963.09
2019-05-30T09:49:21.698Z,98973.06
2019-05-30T09:51:53.623Z,98970.70
2019-05-30T09:54:30.827Z,98957.16
2019-05-30T09:57:04.245Z,98957.16
2019-05-30T09:59:36.824Z,98972.73
2019-05-30T10:02:10.564Z,98973.77
2019-05-30T10:04:43.911Z,98977.22
2019-05-30T10:07:19.404Z,98972.24
2019-05-30T10:09:53.029Z,98975.02
2019-05-30T10:12:28.301Z,98978.21
2019-05-30T10:15:00.608Z,98980.34
2019-05-30T10:17:32.733Z,98971.01
2019-05-30T10:20:07.087Z,98975.58
2019-05-30T10:22:41.493Z,98977.52
2019-05-30T10:25:13.216Z,98974.25
2019-05-30T10:27:47.876Z,98977.44
2019-05-30T10:30:22.532Z,98983.23
2019-05-30T10:32:55.860Z,98988.44
2019-05-30T10:35:30.335Z,98978.41
2019-05-30T10:38:04.447Z,98991.33
2019-05-30T10:40:37.861Z,98987.14
2019-05-30T10:43:09.603Z,98990.33
2019-05-30T10:45:42.719Z,98986.13
2019-05-30T10:48:15.420Z,98984.58
2019-05-30T10:50:48.532Z,98990.06
2019-05-30T10:53:21.995Z,98989.87
2019-05-30T10:55:56.471Z,98986.40
2019-05-30T10:58:29.075Z,98972.24
2019-05-30T11:01:01.483Z,98982.20
2019-05-30T11:03:33.626Z,98978.08
2019-05-30T11:06:56.849Z,98974.77
2019-05-30T11:09:20.275Z,98981.13
2019-05-30T11:11:52.932Z,98981.52
2019-05-30T11:14:26.572Z,98977.82
2019-05-30T11:16:58.143Z,98976.09
2019-05-30T11:19:31.698Z,98983.86
2019-05-30T11:22:04.354Z,98969.65
2019-05-30T11:24:36.124Z,98972.30
2019-05-30T11:27:09.540Z,98983.73
2019-05-30T11:29:42.760Z,98977.84
2019-05-30T11:32:17.406Z,98978.55
2019-05-30T11:34:51.229Z,98977.88
2019-05-30T11:37:24.517Z,98974.83
2019-05-30T11:39:57.753Z,98975.63
2019-05-30T11:42:29.705Z,98979.45
2019-05-30T11:45:02.747Z,98972.31
2019-05-30T11:47:35.745Z,98971.81
2019-05-30T11:50:12.638Z,98983.03
2019-05-30T11:52:43.761Z,98975.11
2019-05-30T11:55:16.646Z,98974.64
2019-05-30T11:57:50.043Z,98974.22
2019-05-30T12:00:25.890Z,98969.83
2019-05-30T12:03:00.970Z,98970.09
2019-05-30T12:05:35.675Z,98980.93
2019-05-30T12:08:09.884Z,98977.34
2019-05-30T12:10:44.640Z,98980.29
2019-05-30T12:13:19.759Z,98979.24
2019-05-30T12:15:53.423Z,98979.48
2019-05-30T12:18:25.906Z,98986.15
2019-05-30T12:20:57.813Z,98985.34
2019-05-30T12:23:31.507Z,98982.08
2019-05-30T12:26:06.319Z,98984.30
2019-05-30T12:28:40.312Z,98980.59
2019-05-30T12:31:13.418Z,98980.78
2019-05-30T12:33:47.751Z,98980.89
2019-05-30T12:36:19.870Z,98974.43
2019-05-30T12:38:52.214Z,98981.20
2019-05-30T12:41:24.505Z,98977.58
2019-05-30T12:43:59.071Z,98978.33
2019-05-30T12:46:31.240Z,98969.64
2019-05-30T12:49:06.273Z,98974.83
2019-05-30T12:51:38.511Z,98975.33
2019-05-30T12:54:10.956Z,98983.18
2019-05-30T12:56:42.693Z,98976.44
2019-05-30T12:59:16.195Z,98977.27
2019-05-30T13:01:50.194Z,98974.16
2019-05-30T13:04:21.858Z,98970.95
2019-05-30T13:06:56.009Z,98976.28
2019-05-30T13:09:30.289Z,98968.60
2019-05-30T13:12:06.905Z,98977.45
2019-05-30T13:14:40.799Z,98975.17
2019-05-30T13:17:14.841Z,98976.16
2019-05-30T13:19:46.715Z,98978.96
2019-05-30T13:22:20.350Z,98973.33
2019-05-30T13:24:55.506Z,98971.78
2019-05-30T13:27:30.656Z,98975.20
2019-05-30T13:30:04.177Z,98971.91
2019-05-30T13:32:39.433Z,98965.16
2019-05-30T13:35:14.913Z,98962.05
2019-05-30T13:37:47.572Z,98962.10
2019-05-30T13:40:25.817Z,98963.21
2019-05-30T13:42:59.720Z,98961.85
2019-05-30T13:45:32.175Z,98955.66
2019-05-30T13:48:04.468Z,98962.13
2019-05-30T13:50:36.782Z,98949.82
2019-05-30T13:53:09.487Z,98951.43
2019-05-30T13:55:41.158Z,98950.52
2019-05-30T13:58:13.800Z,98946.81
2019-05-30T14:00:47.381Z,98946.08
2019-05-30T14:03:20.702Z,98953.23
2019-05-30T14:05:55.612Z,98949.16
2019-05-30T14:08:40.796Z,98948.70
2019-05-30T14:11:02.683Z,98949.53
2019-05-30T14:13:35.531Z,98948.13
2019-05-30T14:16:09.022Z,98958.84
2019-05-30T14:18:41.578Z,98954.86
2019-05-30T14:21:13.997Z,98959.40
2019-05-30T14:23:47.196Z,98964.69
2019-05-30T14:26:20.216Z,98955.73
2019-05-30T14:28:53.399Z,98954.13
2019-05-30T14:31:26.278Z,98950.95
2019-05-30T14:33:59.473Z,98958.62
2019-05-30T14:36:32.655Z,98956.37
2019-05-30T14:39:11.197Z,98953.02
2019-05-30T14:41:44.283Z,98947.98
2019-05-30T14:44:18.688Z,98957.21
2019-05-30T14:46:50.330Z,98953.30
2019-05-30T14:49:23.428Z,98962.44
2019-05-30T14:51:56.443Z,98958.05
2019-05-30T14:54:30.573Z,98955.91
2019-05-30T14:57:02.613Z,98956.95
2019-05-30T14:59:36.984Z,98952.41
2019-05-30T15:02:11.203Z,98952.20
2019-05-30T15:04:48.044Z,98951.59
2019-05-30T15:07:19.779Z,98953.02
2019-05-30T15:09:53.438Z,98950.22
2019-05-30T15:12:25.816Z,98942.64
2019-05-30T15:15:00.360Z,98946.52
2019-05-30T15:17:34.561Z,98946.55
2019-05-30T15:20:10.313Z,98942.67
2019-05-30T15:22:41.726Z,98943.55
2019-05-30T15:25:18.113Z,98943.81
2019-05-30T15:27:56.448Z,98937.92
2019-05-30T15:30:29.856Z,98935.16
2019-05-30T15:33:03.948Z,98936.53
2019-05-30T15:35:39.149Z,98937.88
2019-05-30T15:38:11.055Z,98931.27
2019-05-30T15:40:44.338Z,98930.38
2019-05-30T15:43:18.873Z,98921.05
2019-05-30T15:45:52.274Z,98931.98
2019-05-30T15:48:25.949Z,98931.12
2019-05-30T15:50:58.408Z,98920.16
2019-05-30T15:53:31.201Z,98928.11
2019-05-30T15:56:03.038Z,98918.25
2019-05-30T15:58:35.610Z,98919.30
2019-05-30T16:01:10.474Z,98919.30
2019-05-30T16:03:43.858Z,98929.24
2019-05-30T16:06:18.575Z,98923.80
2019-05-30T16:08:52.881Z,98925.45
2019-05-30T16:11:27.844Z,98918.67
2019-05-30T16:14:00.337Z,98910.42
2019-05-30T16:16:39.994Z,98915.96
2019-05-30T16:19:17.372Z,98914.05
2019-05-30T16:21:43.496Z,98919.84
2019-05-30T16:24:18.992Z,98921.02
2019-05-30T16:26:51.618Z,98918.28
2019-05-30T16:29:23.949Z,98926.14
2019-05-30T16:31:56.628Z,98917.05
2019-05-30T16:34:32.667Z,98926.78
2019-05-30T16:37:03.006Z,98922.78
2019-05-30T16:39:34.784Z,98922.72
2019-05-30T16:42:10.991Z,98916.83
2019-05-30T16:44:43.851Z,98908.85
2019-05-30T16:47:16.609Z,98919.66
2019-05-30T16:49:50.340Z,98907.83
2019-05-30T16:52:25.761Z,98909.06
2019-05-30T16:54:59.418Z,98909.25
2019-05-30T16:57:31.871Z,98930.36
2019-05-30T17:00:04.807Z,98913.04
2019-05-30T17:02:36.628Z,98911.90
2019-05-30T17:05:11.703Z,98915.62
2019-05-30T17:07:48.233Z,98923.23
2019-05-30T17:10:26.663Z,98924.41
2019-05-30T17:12:56.765Z,98920.59
2019-05-30T17:15:30.730Z,98927.73
2019-05-30T17:18:04.550Z,98926.20
2019-05-30T17:20:36.916Z,98927.44
2019-05-30T17:23:09.462Z,98930.05
2019-05-30T17:25:45.173Z,98927.42
2019-05-30T17:28:22.287Z,98926.59
2019-05-30T17:30:55.719Z,98931.14
2019-05-30T17:33:28.890Z,98933.75
2019-05-30T17:36:02.184Z,98938.30
2019-05-30T17:38:34.213Z,98939.19
2019-05-30T17:41:07.822Z,98934.07
2019-05-30T17:43:39.400Z,98933.53
2019-05-30T17:46:11.436Z,98933.53
2019-05-30T17:48:44.216Z,98946.50
2019-05-30T17:51:16.026Z,98952.06
2019-05-30T17:53:49.613Z,98946.06
2019-05-30T17:56:26.138Z,98955.78
2019-05-30T17:58:58.380Z,98963.36
2019-05-30T18:01:30.878Z,98960.34
2019-05-30T18:04:05.112Z,98963.39
2019-05-30T18:06:37.737Z,98966.66
2019-05-30T18:09:10.859Z,98966.60
2019-05-30T18:11:44.807Z,98972.87
2019-05-30T18:14:17.412Z,98976.27
2019-05-30T18:16:51.554Z,98970.48
2019-05-30T18:19:27.353Z,98968.47
2019-05-30T18:22:02.727Z,98974.21
2019-05-30T18:24:35.819Z,98974.35
2019-05-30T18:27:08.621Z,98973.20
2019-05-30T18:29:40.618Z,98985.77
2019-05-30T18:32:12.967Z,98979.44
2019-05-30T18:34:46.427Z,98974.77
2019-05-30T18:37:20.708Z,98983.92
2019-05-30T18:39:55.630Z,98982.13
2019-05-30T18:42:29.125Z,98979.86
2019-05-30T18:45:05.737Z,98977.52
2019-05-30T18:47:38.445Z,98986.40
2019-05-30T18:50:12.202Z,98987.45
2019-05-30T18:52:45.536Z,98997.36
2019-05-30T18:55:19.636Z,98997.64
2019-05-30T18:57:57.988Z,98989.45
2019-05-30T19:00:29.669Z,98990.41
2019-05-30T19:03:02.316Z,98993.87
2019-05-30T19:05:36.959Z,98996.65
2019-05-30T19:08:09.931Z,99005.73
2019-05-30T19:10:42.965Z,99001.91
2019-05-30T19:13:16.473Z,99008.44
2019-05-30T19:15:49.110Z,99019.45
2019-05-30T19:18:20.815Z,99015.08
2019-05-30T19:20:52.469Z,99012.36
2019-05-30T19:23:24.353Z,99023.19
2019-05-30T19:25:58.194Z,99022.88
2019-05-30T19:28:36.622Z,99027.38
2019-05-30T19:31:12.862Z,99018.30
2019-05-30T19:33:45.537Z,99019.89
2019-05-30T19:36:19.700Z,99024.38
2019-05-30T19:38:54.585Z,99019.65
2019-05-30T19:41:28.654Z,99016.03
2019-05-30T19:44:00.797Z,99009.78
2019-05-30T19:46:36.256Z,99018.73
2019-05-30T19:49:08.107Z,99015.08
2019-05-30T19:51:41.385Z,99011.45
2019-05-30T19:54:13.316Z,99022.80
2019-05-30T19:56:47.744Z,99026.57
2019-05-30T19:59:20.720Z,99014.28
2019-05-30T20:01:56.420Z,99019.61
2019-05-30T20:04:32.213Z,99014.44
2019-05-30T20:07:05.526Z,99024.42
2019-05-30T20:09:40.797Z,99015.20
2019-05-30T20:12:13.116Z,99025.78
2019-05-30T20:14:49.440Z,99013.29
2019-05-30T20:17:24.316Z,99022.23
2019-05-30T20:19:59.709Z,99023.75
2019-05-30T20:22:31.855Z,99017.17
2019-05-30T20:25:08.623Z,99011.38
2019-05-30T20:27:44.640Z,99019.25
2019-05-30T20:30:19.203Z,99025.81
2019-05-30T20:32:53.777Z,99014.55
2019-05-30T20:35:25.915Z,99017.47
2019-05-30T20:38:01.343Z,99017.47
2019-05-30T20:40:34.926Z,99024.86
2019-05-30T20:43:09.982Z,99026.81
2019-05-30T20:45:48.008Z,99016.82
2019-05-30T20:48:20.535Z,99022.75
2019-05-30T20:50:53.282Z,99025.53
2019-05-30T20:53:25.717Z,99017.54
2019-05-30T20:55:59.552Z,99031.19
2019-05-30T20:58:33.846Z,99022.75
2019-05-30T21:01:05.977Z,99016.73
2019-05-30T21:03:41.857Z,99017.02
2019-05-30T21:06:15.789Z,99018.30
2019-05-30T21:08:50.326Z,99020.64
2019-05-30T21:11:25.650Z,99016.66
2019-05-30T21:13:59.163Z,99014.95
2019-05-30T21:16:33.066Z,99021.42
2019-05-30T21:19:06.650Z,99022.73
2019-05-30T21:21:40.005Z,99016.69
2019-05-30T21:24:13.171Z,99011.27
2019-05-30T21:26:47.667Z,99012.27
2019-05-30T21:29:22.262Z,99007.92
2019-05-30T21:31:54.714Z,99000.08
2019-05-30T21:34:26.883Z,99008.91
2019-05-30T21:36:59.436Z,99015.07
2019-05-30T21:39:34.421Z,99027.17
2019-05-30T21:42:06.644Z,99017.26
2019-05-30T21:44:40.642Z,99019.97
2019-05-30T21:47:13.729Z,99021.27
2019-05-30T21:49:47.076Z,99021.34
2019-05-30T21:52:20.607Z,99018.47
2019-05-30T21:54:53.600Z,99022.53
2019-05-30T21:57:26.532Z,99019.81
2019-05-30T22:00:00.785Z,99021.41
2019-05-30T22:02:33.585Z,99018.78
2019-05-30T22:05:09.699Z,99022.91
2019-05-30T22:07:43.586Z,99017.42
2019-05-30T22:10:17.028Z,99013.60
2019-05-30T22:12:51.878Z,99028.58
2019-05-30T22:15:24.196Z,99019.39
2019-05-30T22:17:56.646Z,99024.73
2019-05-30T22:20:28.296Z,99017.89
2019-05-30T22:23:00.395Z,99014.73
2019-05-30T22:25:32.125Z,99020.02
2019-05-30T22:28:05.880Z,99017.66
2019-05-30T22:30:37.565Z,99016.29
2019-05-30T22:33:09.874Z,99007.42
2019-05-30T22:35:43.296Z,99013.88
2019-05-30T22:38:16.077Z,99014.27
2019-05-30T22:40:49.971Z,99018.57
2019-05-30T22:43:25.471Z,99015.94
2019-05-30T22:45:56.853Z,99012.01
2019-05-30T22:48:29.839Z,99012.01
2019-05-30T22:51:02.628Z,99014.66
2019-05-30T22:53:37.566Z,99015.64
2019-05-30T22:56:11.024Z,99012.02
2019-05-30T22:58:43.320Z,99011.05
2019-05-30T23:01:15.732Z,99014.06
2019-05-30T23:03:52.622Z,99018.55
2019-05-30T23:06:27.804Z,99012.48
2019-05-30T23:08:59.646Z,99012.47
2019-05-30T23:11:33.223Z,99011.41
2019-05-30T23:14:07.192Z,99012.70
2019-05-30T23:16:41.644Z,99014.25
2019-05-30T23:19:14.559Z,99016.83
2019-05-30T23:21:48.721Z,99011.71
2019-05-30T23:24:23.583Z,99012.52
2019-05-30T23:26:56.218Z,99012.66
2019-05-30T23:29:27.809Z,99003.78
2019-05-30T23:32:00.653Z,99003.33
2019-05-30T23:34:33.927Z,99008.02
2019-05-30T23:37:06.658Z,99005.68
2019-05-30T23:39:39.305Z,99007.16
2019-05-30T23:42:12.035Z,99003.70
2019-05-30T23:44:44.909Z,99001.95
2019-05-30T23:47:16.510Z,99004.83
2019-05-30T23:49:51.659Z,98999.09
2019-05-30T23:52:24.627Z,98998.81
2019-05-30T23:54:56.822Z,99001.80
2019-05-30T23:57:30.737Z,99007.73
